Terminal Aerodrome Forecast
Issued by NWS

Home | Current Version | Previous Version | Text Only | Print | Product List | Glossary On
Versions: 1 2 3 4 5 6 7 8 9 10 11 12 13 14
000
FTUS45 KMSO 041803 CCA
TAFSMN
TAF COR
KSMN 041803Z 0418/0518 00000KT 3SM -SN BR BKN035 OVC050
     FM050200 35015G25KT 2SM -SN BR OVC025
     FM050600 36011KT 6SM -SN BR BKN100
      AMD LTD TO CLD VIS AND WIND=

USA.gov is the U.S. government's official web portal to all federal, state and local government web resources and services.